This is the latest recevied weather packets stored in our database for station/object EA1BQO-1. If no packets are shown the sender has not sent any weather packets the latest 1 day(s).
| Time | Temp. | Humidity | Pressure | Rain* | Wind** | Luminosity | Snow |
|---|---|---|---|---|---|---|---|
| 1778003805 | 11.67° C | 71% | 1010.6 hPa | 0 mm | 0.45 m/s, 220° | - | - |
| 1778003205 | 11.11° C | 72% | 1010.7 hPa | 0 mm | 1.34 m/s, 220° | - | - |
| 1778002605 | 10.56° C | 75% | 1010.6 hPa | 0 mm | 0.89 m/s, 222° | - | - |
| 1778002005 | 11.11° C | 75% | 1010.7 hPa | 0.25 mm | 0.45 m/s, 246° | - | - |
| 1778001405 | 11.11° C | 72% | 1010.5 hPa | 0.25 mm | 0.45 m/s, 244° | - | - |
| 1778000805 | 11.67° C | 67% | 1010.6 hPa | 0.25 mm | 0 m/s | - | - |
| 1778000205 | 11.67° C | 64% | 1010.4 hPa | 0.25 mm | 0 m/s | - | - |
| 1777999605 | 11.67° C | 62% | 1010.6 hPa | 0.25 mm | 0 m/s | - | - |
| 1777999005 | 12.22° C | 58% | 1010.7 hPa | 0.25 mm | 0 m/s | - | - |
| 1777998404 | 13.33° C | 60% | 1010.7 hPa | 0 mm | 1.34 m/s, 316° | - | - |
| 1777997804 | 14.44° C | 54% | 1010.4 hPa | 0 mm | 1.34 m/s, 263° | - | - |
| 1777997204 | 15° C | 52% | 1010.2 hPa | 0 mm | 1.79 m/s, 241° | - | - |
| 1777996604 | 14.44° C | 57% | 1010.1 hPa | 0 mm | 2.68 m/s, 237° | - | - |
| 1777996004 | 14.44° C | 57% | 1010.1 hPa | 0 mm | 2.68 m/s, 235° | - | - |
| 1777995404 | 13.89° C | 60% | 1010.2 hPa | 0 mm | 1.79 m/s, 239° | - | - |
| 1777994804 | 13.33° C | 59% | 1010.4 hPa | 0 mm | 2.68 m/s, 234° | - | - |
| 1777994204 | 13.33° C | 61% | 1010.5 hPa | 0 mm | 2.68 m/s, 247° | - | - |
| 1777993604 | 13.89° C | 56% | 1010.2 hPa | 0 mm | 2.24 m/s, 262° | - | - |
| 1777993004 | 13.89° C | 62% | 1010.3 hPa | 0 mm | 1.79 m/s, 216° | - | - |
| 1777992404 | 13.89° C | 64% | 1010.5 hPa | 0.25 mm | 1.79 m/s, 228° | - | - |
| 1777991804 | 13.33° C | 70% | 1010.7 hPa | 0.51 mm | 1.34 m/s, 243° | - | - |
| 1777991204 | 12.78° C | 74% | 1010.8 hPa | 0.51 mm | 1.34 m/s, 270° | - | - |
| 1777990604 | 12.22° C | 74% | 1010.8 hPa | 0.51 mm | 3.13 m/s, 247° | - | - |
| 1777990004 | 11.11° C | 85% | 1011.1 hPa | 0.51 mm | 1.34 m/s, 234° | - | - |
| 1777989404 | 10° C | 78% | 1010.9 hPa | 0.51 mm | 0.89 m/s, 308° | - | - |
* Rain latest hour (hover to see other rain measurements)
** Current wind speed in m/s (hover to see current wind gust speed)